createdAt,value
2023-06-12T00:00:18.343Z,13.91
2023-06-12T00:02:51.966Z,13.92
2023-06-12T00:05:24.238Z,13.91
2023-06-12T00:08:00.035Z,13.88
2023-06-12T00:10:32.207Z,13.88
2023-06-12T00:13:07.556Z,13.83
2023-06-12T00:15:56.566Z,13.86
2023-06-12T00:18:29.997Z,13.79
2023-06-12T00:21:05.243Z,13.85
2023-06-12T00:23:37.879Z,13.77
2023-06-12T00:26:08.752Z,13.82
2023-06-12T00:28:59.857Z,13.83
2023-06-12T00:31:36.174Z,13.83
2023-06-12T00:34:10.524Z,13.77
2023-06-12T00:36:45.381Z,13.83
2023-06-12T00:39:18.222Z,13.75
2023-06-12T00:41:52.986Z,13.75
2023-06-12T00:44:25.319Z,13.75
2023-06-12T00:46:57.292Z,13.74
2023-06-12T00:49:30.999Z,13.74
2023-06-12T00:52:07.780Z,13.71
2023-06-12T00:54:42.339Z,13.68
2023-06-12T00:57:15.046Z,13.67
2023-06-12T01:00:04.588Z,13.65
2023-06-12T01:02:46.850Z,13.65
2023-06-12T01:05:35.962Z,13.62
2023-06-12T01:08:44.840Z,13.58
2023-06-12T01:11:40.985Z,13.61
2023-06-12T01:14:22.695Z,13.64
2023-06-12T01:16:56.421Z,13.65
2023-06-12T01:19:28.999Z,13.64
2023-06-12T01:22:08.878Z,13.68
2023-06-12T01:25:01.201Z,13.68
2023-06-12T01:28:19.438Z,13.67
2023-06-12T01:31:11.937Z,13.70
2023-06-12T01:33:57.920Z,13.68
2023-06-12T01:36:32.994Z,13.68
2023-06-12T01:39:14.496Z,13.58
2023-06-12T01:41:46.961Z,13.62
2023-06-12T01:44:20.235Z,13.61
2023-06-12T01:46:56.319Z,13.62
2023-06-12T01:49:30.735Z,13.62
2023-06-12T01:52:06.154Z,13.58
2023-06-12T01:54:38.827Z,13.60
2023-06-12T01:57:17.479Z,13.57
2023-06-12T01:59:51.451Z,13.53
2023-06-12T02:02:29.689Z,13.50
2023-06-12T02:05:01.491Z,13.53
2023-06-12T02:07:32.879Z,13.51
2023-06-12T02:10:05.171Z,13.47
2023-06-12T02:12:46.324Z,13.44
2023-06-12T02:15:24.500Z,13.47
2023-06-12T02:17:56.015Z,13.46
2023-06-12T02:20:26.525Z,13.47
2023-06-12T02:22:58.540Z,13.47
2023-06-12T02:25:33.413Z,13.46
2023-06-12T02:28:09.003Z,13.46
2023-06-12T02:30:40.347Z,13.43
2023-06-12T02:33:13.073Z,13.47
2023-06-12T02:35:50.055Z,13.53
2023-06-12T02:38:22.798Z,13.57
2023-06-12T02:40:54.025Z,13.54
2023-06-12T02:43:24.404Z,13.57
2023-06-12T02:45:54.598Z,13.58
2023-06-12T02:48:27.915Z,13.53
2023-06-12T02:50:59.177Z,13.60
2023-06-12T02:53:29.874Z,13.53
2023-06-12T02:56:00.606Z,13.54
2023-06-12T02:58:31.706Z,13.55
2023-06-12T03:01:02.985Z,13.57
2023-06-12T03:03:34.709Z,13.53
2023-06-12T03:06:05.978Z,13.50
2023-06-12T03:08:37.447Z,13.46
2023-06-12T03:11:11.141Z,13.54
2023-06-12T03:13:43.749Z,13.50
2023-06-12T03:16:16.059Z,13.55
2023-06-12T03:18:47.278Z,13.50
2023-06-12T03:21:19.184Z,13.48
2023-06-12T03:23:50.023Z,13.51
2023-06-12T03:26:21.786Z,13.48
2023-06-12T03:28:57.084Z,13.47
2023-06-12T03:31:29.882Z,13.40
2023-06-12T03:34:04.872Z,13.43
2023-06-12T03:36:39.788Z,13.41
2023-06-12T03:39:16.093Z,13.40
2023-06-12T03:42:00.735Z,13.44
2023-06-12T03:44:56.222Z,13.38
2023-06-12T03:47:40.532Z,13.34
2023-06-12T03:50:30.726Z,13.36
2023-06-12T03:53:09.246Z,13.38
2023-06-12T03:55:41.279Z,13.41
2023-06-12T03:58:12.932Z,13.41
2023-06-12T04:00:44.006Z,13.41
2023-06-12T04:03:18.285Z,13.46
2023-06-12T04:05:50.267Z,13.46
2023-06-12T04:08:22.239Z,13.34
2023-06-12T04:10:55.720Z,13.36
2023-06-12T04:13:26.832Z,13.33
2023-06-12T04:15:58.689Z,13.36
2023-06-12T04:18:30.049Z,13.33
2023-06-12T04:21:01.828Z,13.21
2023-06-12T04:23:37.966Z,13.23
2023-06-12T04:26:09.575Z,13.17
2023-06-12T04:28:40.478Z,13.14
2023-06-12T04:31:12.338Z,13.11
2023-06-12T04:33:44.035Z,13.13
2023-06-12T04:36:17.002Z,13.10
2023-06-12T04:38:52.994Z,13.16
2023-06-12T04:41:28.525Z,13.18
2023-06-12T04:44:02.047Z,13.14
2023-06-12T04:46:37.734Z,13.11
2023-06-12T04:49:31.578Z,12.99
2023-06-12T04:52:06.451Z,12.90
2023-06-12T04:54:43.618Z,12.86
2023-06-12T04:57:20.172Z,12.83
2023-06-12T04:59:52.165Z,12.75
2023-06-12T05:02:23.194Z,12.72
2023-06-12T05:04:55.231Z,12.70
2023-06-12T05:07:27.323Z,12.70
2023-06-12T05:10:03.542Z,12.69
2023-06-12T05:12:35.681Z,12.66
2023-06-12T05:15:12.584Z,12.59
2023-06-12T05:17:44.159Z,12.55
2023-06-12T05:20:16.209Z,12.48
2023-06-12T05:22:49.157Z,12.41
2023-06-12T05:25:20.545Z,12.39
2023-06-12T05:27:52.544Z,12.39
2023-06-12T05:30:24.075Z,12.34
2023-06-12T05:32:55.215Z,12.34
2023-06-12T05:35:26.638Z,12.34
2023-06-12T05:37:57.114Z,12.38
2023-06-12T05:40:28.341Z,12.35
2023-06-12T05:43:01.884Z,12.39
2023-06-12T05:45:35.502Z,12.35
2023-06-12T05:48:07.509Z,12.34
2023-06-12T05:50:39.266Z,12.29
2023-06-12T05:53:11.348Z,12.32
2023-06-12T05:55:41.692Z,12.31
2023-06-12T06:00:56.921Z,12.31
2023-06-12T06:03:49.509Z,12.32
2023-06-12T06:06:21.018Z,12.31
2023-06-12T06:08:53.508Z,12.32
2023-06-12T06:11:23.921Z,12.36
2023-06-12T06:13:55.163Z,12.32
2023-06-12T06:16:31.329Z,12.31
2023-06-12T06:19:12.902Z,12.34
2023-06-12T06:21:44.397Z,12.35
2023-06-12T06:24:15.452Z,12.31
2023-06-12T06:26:46.751Z,12.35
2023-06-12T06:29:18.320Z,12.34
2023-06-12T06:31:49.642Z,12.41
2023-06-12T06:34:22.021Z,12.39
2023-06-12T06:36:53.355Z,12.44
2023-06-12T06:39:24.555Z,12.34
2023-06-12T06:41:55.519Z,12.36
2023-06-12T06:44:29.766Z,12.34
2023-06-12T06:47:01.098Z,12.26
2023-06-12T06:49:33.377Z,12.26
2023-06-12T06:52:04.963Z,12.29
2023-06-12T06:54:36.129Z,12.26
2023-06-12T06:57:11.299Z,12.29
2023-06-12T06:59:41.750Z,12.28
2023-06-12T07:02:12.654Z,12.26
2023-06-12T07:04:45.739Z,12.26
2023-06-12T07:07:19.093Z,12.22
2023-06-12T07:09:50.875Z,12.24
2023-06-12T07:12:23.318Z,12.25
2023-06-12T07:14:54.337Z,12.25
2023-06-12T07:17:26.356Z,12.25
2023-06-12T07:19:59.728Z,12.21
2023-06-12T07:22:31.416Z,12.21
2023-06-12T07:25:02.768Z,12.20
2023-06-12T07:27:34.731Z,12.18
2023-06-12T07:30:09.870Z,12.13
2023-06-12T07:32:41.436Z,12.15
2023-06-12T07:35:12.831Z,12.15
2023-06-12T07:37:44.558Z,12.13
2023-06-12T07:40:18.716Z,12.11
2023-06-12T07:42:50.254Z,12.06
2023-06-12T07:45:22.888Z,12.05
2023-06-12T07:47:59.192Z,12.04
2023-06-12T07:50:36.391Z,12.02
2023-06-12T07:53:09.577Z,11.99
2023-06-12T07:55:49.252Z,11.95
2023-06-12T07:58:20.691Z,11.93
2023-06-12T08:00:57.613Z,11.91
2023-06-12T08:03:31.393Z,11.94
2023-06-12T08:06:05.216Z,11.97
2023-06-12T08:08:47.995Z,12.05
2023-06-12T08:11:21.377Z,12.02
2023-06-12T08:13:56.013Z,11.98
2023-06-12T08:16:29.300Z,11.97
2023-06-12T08:19:02.563Z,11.97
2023-06-12T08:21:37.531Z,11.98
2023-06-12T08:24:11.871Z,11.99
2023-06-12T08:26:43.034Z,11.94
2023-06-12T08:29:15.039Z,11.93
2023-06-12T08:31:46.761Z,11.94
2023-06-12T08:34:18.353Z,11.94
2023-06-12T08:36:49.735Z,11.91
2023-06-12T08:39:20.980Z,11.93
2023-06-12T08:42:06.637Z,11.94
2023-06-12T08:44:39.350Z,11.95
2023-06-12T08:47:12.774Z,11.90
2023-06-12T08:49:44.620Z,11.83
2023-06-12T08:52:16.658Z,11.81
2023-06-12T08:54:54.118Z,11.77
2023-06-12T08:57:25.325Z,11.74
2023-06-12T08:59:55.783Z,11.74
2023-06-12T09:02:27.898Z,11.73
2023-06-12T09:05:13.224Z,11.78
2023-06-12T09:07:49.260Z,11.77
2023-06-12T09:10:21.666Z,11.75
2023-06-12T09:12:57.955Z,11.71
2023-06-12T09:15:29.962Z,11.70
2023-06-12T09:18:02.653Z,11.70
2023-06-12T09:23:11.540Z,11.67
2023-06-12T09:26:05.091Z,11.70
2023-06-12T09:28:40.233Z,11.64
2023-06-12T09:31:14.433Z,11.63
2023-06-12T09:33:47.048Z,11.63
2023-06-12T09:36:18.249Z,11.60
2023-06-12T09:38:53.801Z,11.57
2023-06-12T09:41:29.144Z,11.59
2023-06-12T09:44:06.205Z,11.57
2023-06-12T09:46:37.410Z,11.54
2023-06-12T09:52:09.452Z,11.54
2023-06-12T09:54:43.824Z,11.54
2023-06-12T09:57:17.226Z,11.53
2023-06-12T09:59:49.823Z,11.50
2023-06-12T10:02:21.938Z,11.47
2023-06-12T10:05:03.629Z,11.42
2023-06-12T10:07:45.717Z,11.39
2023-06-12T10:10:19.236Z,11.37
2023-06-12T10:12:51.238Z,11.34
2023-06-12T10:15:23.230Z,11.32
2023-06-12T10:17:57.812Z,11.32
2023-06-12T10:20:33.065Z,11.30
2023-06-12T10:23:06.810Z,11.29
2023-06-12T10:25:37.793Z,11.26
2023-06-12T10:28:09.829Z,11.23
2023-06-12T10:30:40.103Z,11.23
2023-06-12T10:33:16.157Z,11.20
2023-06-12T10:35:47.365Z,11.18
2023-06-12T10:38:18.891Z,11.19
2023-06-12T10:40:53.508Z,11.20
2023-06-12T10:43:27.462Z,11.22
2023-06-12T10:46:03.158Z,11.23
2023-06-12T10:48:50.851Z,11.26
2023-06-12T10:51:36.698Z,11.29
2023-06-12T10:54:19.170Z,11.29
2023-06-12T10:57:02.335Z,11.32
2023-06-12T10:59:42.508Z,11.36
2023-06-12T11:02:13.920Z,11.46
2023-06-12T11:04:45.209Z,11.59
2023-06-12T11:07:19.497Z,11.75
2023-06-12T11:09:50.547Z,12.46
2023-06-12T11:12:20.873Z,12.26
2023-06-12T11:14:52.326Z,12.46
2023-06-12T11:17:23.091Z,12.35
2023-06-12T11:20:02.038Z,12.66
2023-06-12T11:22:33.389Z,12.87
2023-06-12T11:25:09.223Z,13.58
2023-06-12T11:27:45.191Z,14.26
2023-06-12T11:30:31.304Z,13.68
2023-06-12T11:33:13.670Z,13.53
2023-06-12T11:35:44.528Z,13.31
2023-06-12T11:41:03.437Z,13.50
2023-06-12T11:43:34.899Z,13.51
2023-06-12T11:46:06.199Z,13.64
2023-06-12T11:51:11.526Z,13.65
2023-06-12T11:53:44.549Z,13.83
2023-06-12T11:58:50.598Z,13.82
2023-06-12T12:01:26.112Z,14.09
2023-06-12T12:04:03.395Z,14.15
2023-06-12T12:06:33.913Z,14.30
2023-06-12T12:09:07.136Z,14.46
2023-06-12T12:11:39.408Z,14.42
2023-06-12T12:14:13.772Z,14.59
2023-06-12T12:16:51.158Z,14.64
2023-06-12T12:19:31.488Z,14.39
2023-06-12T12:22:02.178Z,14.59
2023-06-12T12:24:39.243Z,14.80
2023-06-12T12:27:16.427Z,14.95
2023-06-12T12:29:59.784Z,14.98
2023-06-12T12:32:38.670Z,14.98
2023-06-12T12:35:10.275Z,15.14
2023-06-12T12:37:43.080Z,15.21
2023-06-12T12:40:16.730Z,15.31
2023-06-12T12:42:49.967Z,15.47
2023-06-12T12:45:23.663Z,15.62
2023-06-12T12:47:57.911Z,15.49
2023-06-12T12:50:30.993Z,15.42
2023-06-12T12:53:04.490Z,15.49
2023-06-12T12:55:35.723Z,15.68
2023-06-12T13:00:41.166Z,15.38
2023-06-12T13:03:11.854Z,15.42
2023-06-12T13:05:43.401Z,15.58
2023-06-12T13:08:14.065Z,15.76
2023-06-12T13:10:47.624Z,15.85
2023-06-12T13:13:18.078Z,15.96
2023-06-12T13:15:49.721Z,15.89
2023-06-12T13:18:25.787Z,15.98
2023-06-12T13:20:59.329Z,16.21
2023-06-12T13:23:30.970Z,16.09
2023-06-12T13:26:02.071Z,15.92
2023-06-12T13:28:35.883Z,16.19
2023-06-12T13:31:07.017Z,16.20
2023-06-12T13:33:40.620Z,16.31
2023-06-12T13:36:17.463Z,16.13
2023-06-12T13:38:51.940Z,15.79
2023-06-12T13:41:24.094Z,15.76
2023-06-12T13:43:55.938Z,15.86
2023-06-12T13:46:27.332Z,15.99
2023-06-12T13:48:59.624Z,16.16
2023-06-12T13:51:31.718Z,16.47
2023-06-12T13:54:03.813Z,16.59
2023-06-12T13:56:35.331Z,16.61
2023-06-12T13:59:07.877Z,16.94
2023-06-12T14:01:42.177Z,17.05
2023-06-12T14:04:13.185Z,16.95
2023-06-12T14:06:44.488Z,17.10
2023-06-12T14:09:17.240Z,17.08
2023-06-12T14:11:48.808Z,16.91
2023-06-12T14:14:21.158Z,17.04
2023-06-12T14:16:51.587Z,16.81
2023-06-12T14:19:24.108Z,16.84
2023-06-12T14:21:55.758Z,16.80
2023-06-12T14:24:36.379Z,16.64
2023-06-12T14:27:11.298Z,16.91
2023-06-12T14:29:53.066Z,16.98
2023-06-12T14:32:24.806Z,17.00
2023-06-12T14:34:55.116Z,17.12
2023-06-12T14:37:26.150Z,17.32
2023-06-12T14:39:57.275Z,17.16
2023-06-12T14:42:27.678Z,17.11
2023-06-12T14:44:59.044Z,17.11
2023-06-12T14:47:33.105Z,17.12
2023-06-12T14:50:05.968Z,17.14
2023-06-12T14:52:36.775Z,17.35
2023-06-12T14:55:12.694Z,17.36
2023-06-12T14:57:45.384Z,17.50
2023-06-12T15:00:16.964Z,17.29
2023-06-12T15:02:50.419Z,17.12
2023-06-12T15:05:21.738Z,16.98
2023-06-12T15:07:53.659Z,17.11
2023-06-12T15:10:24.241Z,17.25
2023-06-12T15:13:08.815Z,17.18
2023-06-12T15:15:41.830Z,17.47
2023-06-12T15:18:20.958Z,17.53
2023-06-12T15:21:07.729Z,17.28
2023-06-12T15:23:39.014Z,17.33
2023-06-12T15:26:10.933Z,17.45
2023-06-12T15:28:42.761Z,17.38
2023-06-12T15:31:15.517Z,17.35
2023-06-12T15:33:47.174Z,17.12
2023-06-12T15:36:18.148Z,16.96
2023-06-12T15:38:51.917Z,17.02
2023-06-12T15:41:30.847Z,17.39
2023-06-12T15:44:03.756Z,17.15
2023-06-12T15:46:35.711Z,16.74
2023-06-12T15:49:08.382Z,16.67
2023-06-12T15:51:38.993Z,16.72
2023-06-12T15:54:12.666Z,16.74
2023-06-12T15:56:44.075Z,16.88
2023-06-12T15:59:15.497Z,16.88
2023-06-12T16:01:45.853Z,16.72
2023-06-12T16:04:19.861Z,16.54
2023-06-12T16:06:51.967Z,16.29
2023-06-12T16:09:22.833Z,16.40
2023-06-12T16:11:59.337Z,16.26
2023-06-12T16:14:31.030Z,16.19
2023-06-12T16:17:04.740Z,16.51
2023-06-12T16:19:36.158Z,16.54
2023-06-12T16:22:08.369Z,16.63
2023-06-12T16:24:38.907Z,16.56
2023-06-12T16:27:14.477Z,16.26
2023-06-12T16:29:45.740Z,16.17
2023-06-12T16:32:18.139Z,15.92
2023-06-12T16:34:51.228Z,15.83
2023-06-12T16:37:25.243Z,15.90
2023-06-12T16:40:11.808Z,15.98
2023-06-12T16:42:52.654Z,16.03
2023-06-12T16:45:26.970Z,16.02
2023-06-12T16:47:58.525Z,15.78
2023-06-12T16:50:29.498Z,15.81
2023-06-12T16:53:01.168Z,15.76
2023-06-12T16:55:32.012Z,15.73
2023-06-12T16:58:06.368Z,15.79
2023-06-12T17:00:43.719Z,15.72
2023-06-12T17:03:14.131Z,15.69
2023-06-12T17:05:45.876Z,15.78
2023-06-12T17:08:20.594Z,15.69
2023-06-12T17:10:58.718Z,15.56
2023-06-12T17:13:35.651Z,15.52
2023-06-12T17:16:11.567Z,15.38
2023-06-12T17:18:46.120Z,15.49
2023-06-12T17:21:33.104Z,15.47
2023-06-12T17:24:11.999Z,15.37
2023-06-12T17:26:43.402Z,15.35
2023-06-12T17:29:15.708Z,15.32
2023-06-12T17:31:49.842Z,15.28
2023-06-12T17:34:22.772Z,15.12
2023-06-12T17:37:34.805Z,15.15
2023-06-12T17:40:18.744Z,15.14
2023-06-12T17:42:53.852Z,14.93
2023-06-12T17:45:24.328Z,14.84
2023-06-12T17:47:57.528Z,14.88
2023-06-12T17:50:29.492Z,14.97
2023-06-12T17:53:00.472Z,15.03
2023-06-12T17:55:36.485Z,15.00
2023-06-12T17:58:07.053Z,15.11
2023-06-12T18:00:37.495Z,15.00
2023-06-12T18:03:08.429Z,14.97
2023-06-12T18:05:39.716Z,14.88
2023-06-12T18:08:10.726Z,14.80
2023-06-12T18:10:42.921Z,14.81
2023-06-12T18:13:17.307Z,14.79
2023-06-12T18:15:49.035Z,14.74
2023-06-12T18:18:19.471Z,14.66
2023-06-12T18:20:49.519Z,14.63
2023-06-12T18:23:20.277Z,14.56
2023-06-12T18:25:50.382Z,14.53
2023-06-12T18:28:22.061Z,14.55
2023-06-12T18:30:53.613Z,14.56
2023-06-12T18:33:24.848Z,14.46
2023-06-12T18:35:58.678Z,14.39
2023-06-12T18:38:30.600Z,14.39
2023-06-12T18:41:02.733Z,14.37
2023-06-12T18:43:34.367Z,14.21
2023-06-12T18:46:04.961Z,14.28
2023-06-12T18:48:38.209Z,14.11
2023-06-12T18:51:10.705Z,13.99
2023-06-12T18:53:42.257Z,14.04
2023-06-12T18:56:14.293Z,14.04
2023-06-12T18:58:48.551Z,13.94
2023-06-12T19:01:19.910Z,14.12
2023-06-12T19:03:50.794Z,14.23
2023-06-12T19:06:21.981Z,14.18
2023-06-12T19:08:53.672Z,14.23
2023-06-12T19:11:27.808Z,14.12
2023-06-12T19:14:01.316Z,13.99
2023-06-12T19:16:32.109Z,14.09
2023-06-12T19:19:02.601Z,14.08
2023-06-12T19:21:33.604Z,14.11
2023-06-12T19:24:05.038Z,13.95
2023-06-12T19:26:44.482Z,13.89
2023-06-12T19:29:21.408Z,13.83
2023-06-12T19:31:53.040Z,13.82
2023-06-12T19:34:24.172Z,13.79
2023-06-12T19:36:54.927Z,13.71
2023-06-12T19:39:26.415Z,13.68
2023-06-12T19:41:58.127Z,13.58
2023-06-12T19:44:29.125Z,13.54
2023-06-12T19:47:00.386Z,13.43
2023-06-12T19:49:32.065Z,13.48
2023-06-12T19:52:02.802Z,13.51
2023-06-12T19:54:36.422Z,13.44
2023-06-12T19:57:09.671Z,13.31
2023-06-12T19:59:40.420Z,13.16
2023-06-12T20:02:12.744Z,13.09
2023-06-12T20:04:45.396Z,12.97
2023-06-12T20:07:16.763Z,12.87
2023-06-12T20:09:48.523Z,12.79
2023-06-12T20:12:20.480Z,12.72
2023-06-12T20:14:51.603Z,12.59
2023-06-12T20:17:23.420Z,12.52
2023-06-12T20:19:54.224Z,12.42
2023-06-12T20:22:28.360Z,12.36
2023-06-12T20:25:03.277Z,12.26
2023-06-12T20:27:47.899Z,12.22
2023-06-12T20:30:18.616Z,12.10
2023-06-12T20:32:48.985Z,12.02
2023-06-12T20:35:19.874Z,11.94
2023-06-12T20:37:51.361Z,11.90
2023-06-12T20:40:22.822Z,11.81
2023-06-12T20:42:55.445Z,11.77
2023-06-12T20:45:27.842Z,11.75
2023-06-12T20:47:59.622Z,11.74
2023-06-12T20:50:31.086Z,11.69
2023-06-12T20:53:01.717Z,11.63
2023-06-12T20:55:33.631Z,11.59
2023-06-12T20:58:04.211Z,11.54
2023-06-12T21:00:37.857Z,11.50
2023-06-12T21:03:08.341Z,11.49
2023-06-12T21:05:45.240Z,11.43
2023-06-12T21:08:16.674Z,11.43
2023-06-12T21:10:52.911Z,11.42
2023-06-12T21:13:24.606Z,11.43
2023-06-12T21:15:57.416Z,11.34
2023-06-12T21:18:28.772Z,11.29
2023-06-12T21:21:00.326Z,11.30
2023-06-12T21:23:33.144Z,11.27
2023-06-12T21:26:04.396Z,11.26
2023-06-12T21:28:34.683Z,11.23
2023-06-12T21:31:04.961Z,11.26
2023-06-12T21:33:35.718Z,11.26
2023-06-12T21:36:08.406Z,11.26
2023-06-12T21:38:40.099Z,11.22
2023-06-12T21:41:12.043Z,11.24
2023-06-12T21:43:46.671Z,11.22
2023-06-12T21:46:18.457Z,11.23
2023-06-12T21:51:34.246Z,11.20
2023-06-12T21:54:09.237Z,11.19
2023-06-12T21:56:43.817Z,11.19
2023-06-12T21:59:15.196Z,11.22
2023-06-12T22:01:52.592Z,11.19
2023-06-12T22:04:26.321Z,11.18
2023-06-12T22:06:58.586Z,11.18
2023-06-12T22:09:36.990Z,11.15
2023-06-12T22:12:08.497Z,11.10
2023-06-12T22:14:42.165Z,11.10
2023-06-12T22:17:16.801Z,11.12
2023-06-12T22:19:48.078Z,11.06
2023-06-12T22:22:21.388Z,11.06
2023-06-12T22:24:53.151Z,11.00
2023-06-12T22:27:25.262Z,11.03
2023-06-12T22:29:58.208Z,11.02
2023-06-12T22:32:30.654Z,10.99
2023-06-12T22:35:02.597Z,10.98
2023-06-12T22:37:36.330Z,10.93
2023-06-12T22:40:09.371Z,10.93
2023-06-12T22:42:41.588Z,10.89
2023-06-12T22:45:13.213Z,10.85
2023-06-12T22:47:44.293Z,10.82
2023-06-12T22:50:16.932Z,10.82
2023-06-12T22:52:50.776Z,10.85
2023-06-12T22:55:22.503Z,10.88
2023-06-12T22:58:06.630Z,10.91
2023-06-12T23:00:38.748Z,10.83
2023-06-12T23:03:09.161Z,10.85
2023-06-12T23:05:42.201Z,10.85
2023-06-12T23:08:15.297Z,10.86
2023-06-12T23:11:03.609Z,10.85
2023-06-12T23:13:45.046Z,10.82
2023-06-12T23:16:21.465Z,10.76
2023-06-12T23:18:57.675Z,10.73
2023-06-12T23:21:35.875Z,10.76
2023-06-12T23:24:14.324Z,10.71
2023-06-12T23:26:48.539Z,10.72
2023-06-12T23:29:22.448Z,10.76
2023-06-12T23:31:53.151Z,10.69
2023-06-12T23:34:30.684Z,10.67
2023-06-12T23:37:03.891Z,10.67
2023-06-12T23:39:37.278Z,10.64
2023-06-12T23:42:08.589Z,10.64
2023-06-12T23:44:46.307Z,10.64
2023-06-12T23:47:19.501Z,10.54
2023-06-12T23:49:51.681Z,10.57
2023-06-12T23:52:27.080Z,10.59
2023-06-12T23:55:05.672Z,10.58
2023-06-12T23:57:40.091Z,10.58
